createdAt,value
2018-05-13T00:00:56.510Z,16.00
2018-05-13T00:03:23.036Z,16.00
2018-05-13T00:05:49.326Z,16.00
2018-05-13T00:08:15.546Z,16.00
2018-05-13T00:10:41.790Z,15.90
2018-05-13T00:13:08.042Z,15.90
2018-05-13T00:15:34.266Z,15.90
2018-05-13T00:18:00.535Z,16.00
2018-05-13T00:20:26.986Z,15.90
2018-05-13T00:22:57.118Z,15.80
2018-05-13T00:25:23.678Z,15.80
2018-05-13T00:27:49.961Z,15.80
2018-05-13T00:30:16.618Z,15.80
2018-05-13T00:32:42.862Z,15.80
2018-05-13T00:35:09.663Z,15.90
2018-05-13T00:37:35.926Z,15.80
2018-05-13T00:40:02.705Z,15.70
2018-05-13T00:42:28.974Z,15.70
2018-05-13T00:44:55.878Z,15.80
2018-05-13T00:47:22.139Z,15.80
2018-05-13T00:49:48.914Z,15.70
2018-05-13T00:52:15.454Z,15.80
2018-05-13T00:54:48.942Z,15.70
2018-05-13T00:57:15.181Z,15.70
2018-05-13T00:59:41.487Z,15.80
2018-05-13T01:02:07.690Z,15.70
2018-05-13T01:04:33.973Z,15.70
2018-05-13T01:07:00.225Z,15.70
2018-05-13T01:09:26.761Z,15.60
2018-05-13T01:11:53.454Z,15.60
2018-05-13T01:14:19.701Z,15.60
2018-05-13T01:16:45.953Z,15.60
2018-05-13T01:19:12.457Z,15.50
2018-05-13T01:21:38.806Z,15.60
2018-05-13T01:24:05.350Z,15.70
2018-05-13T01:26:31.594Z,15.80
2018-05-13T01:28:57.842Z,15.80
2018-05-13T01:31:24.083Z,15.80
2018-05-13T01:33:50.322Z,15.80
2018-05-13T01:36:16.566Z,15.90
2018-05-13T01:38:43.530Z,15.90
2018-05-13T01:41:09.769Z,15.90
2018-05-13T01:43:36.026Z,15.90
2018-05-13T01:46:02.502Z,15.90
2018-05-13T01:48:29.489Z,15.90
2018-05-13T01:50:55.744Z,15.80
2018-05-13T01:53:22.030Z,15.90
2018-05-13T01:55:52.292Z,15.90
2018-05-13T01:58:18.513Z,15.90
2018-05-13T02:00:44.790Z,15.90
2018-05-13T02:03:12.355Z,16.00
2018-05-13T02:05:38.609Z,16.00
2018-05-13T02:08:05.327Z,16.10
2018-05-13T02:10:31.595Z,16.00
2018-05-13T02:12:58.106Z,16.10
2018-05-13T02:15:24.365Z,16.20
2018-05-13T02:17:50.897Z,16.20
2018-05-13T02:20:17.161Z,16.20
2018-05-13T02:22:44.172Z,16.30
2018-05-13T02:25:10.430Z,16.30
2018-05-13T02:27:36.973Z,16.30
2018-05-13T02:30:04.271Z,16.30
2018-05-13T02:32:30.503Z,16.20
2018-05-13T02:34:56.783Z,16.30
2018-05-13T02:37:23.486Z,16.20
2018-05-13T02:39:49.754Z,16.20
2018-05-13T02:42:16.218Z,16.20
2018-05-13T02:44:42.740Z,16.20
2018-05-13T02:47:09.783Z,16.10
2018-05-13T02:49:36.034Z,16.20
2018-05-13T02:52:02.658Z,16.10
2018-05-13T02:54:28.910Z,16.00
2018-05-13T02:56:55.205Z,16.00
2018-05-13T02:59:21.902Z,16.00
2018-05-13T03:01:48.257Z,16.00
2018-05-13T03:04:14.496Z,16.00
2018-05-13T03:06:40.789Z,15.90
2018-05-13T03:09:11.261Z,15.90
2018-05-13T03:11:37.738Z,15.90
2018-05-13T03:14:04.318Z,15.90
2018-05-13T03:16:31.334Z,16.00
2018-05-13T03:18:57.612Z,16.00
2018-05-13T03:21:23.917Z,16.00
2018-05-13T03:23:50.150Z,16.00
2018-05-13T03:26:17.142Z,16.00
2018-05-13T03:28:43.418Z,16.00
2018-05-13T03:31:09.937Z,16.00
2018-05-13T03:33:36.202Z,16.00
2018-05-13T03:36:02.460Z,16.00
2018-05-13T03:38:28.742Z,16.00
2018-05-13T03:40:54.983Z,16.10
2018-05-13T03:43:21.470Z,16.10
2018-05-13T03:45:47.731Z,16.10
2018-05-13T03:48:14.226Z,16.10
2018-05-13T03:50:40.469Z,16.10
2018-05-13T03:53:06.732Z,16.10
2018-05-13T03:55:32.998Z,16.10
2018-05-13T03:57:59.259Z,16.10
2018-05-13T04:00:25.556Z,16.10
2018-05-13T04:02:51.866Z,16.10
2018-05-13T04:05:18.134Z,16.10
2018-05-13T04:11:10.365Z,16.20
2018-05-13T04:13:49.317Z,16.20
2018-05-13T04:16:15.563Z,16.20
2018-05-13T04:18:41.852Z,16.20
2018-05-13T04:21:09.033Z,16.20
2018-05-13T04:23:35.293Z,16.20
2018-05-13T04:26:01.550Z,16.30
2018-05-13T04:28:27.810Z,16.30
2018-05-13T04:30:54.267Z,16.30
2018-05-13T04:33:20.502Z,16.30
2018-05-13T04:35:46.758Z,16.30
2018-05-13T04:38:13.823Z,16.40
2018-05-13T04:40:40.487Z,16.40
2018-05-13T04:43:06.739Z,16.40
2018-05-13T04:45:33.785Z,16.50
2018-05-13T04:48:00.014Z,16.40
2018-05-13T04:50:26.778Z,16.30
2018-05-13T04:52:53.010Z,16.20
2018-05-13T04:55:19.546Z,16.20
2018-05-13T04:57:45.778Z,16.30
2018-05-13T05:00:12.850Z,16.20
2018-05-13T05:02:43.021Z,16.20
2018-05-13T05:05:09.305Z,16.40
2018-05-13T05:07:35.534Z,16.50
2018-05-13T05:10:01.851Z,16.50
2018-05-13T05:12:28.107Z,16.60
2018-05-13T05:14:55.413Z,16.60
2018-05-13T05:17:21.658Z,16.60
2018-05-13T05:19:47.931Z,16.50
2018-05-13T05:22:14.366Z,16.40
2018-05-13T05:24:40.635Z,16.50
2018-05-13T05:27:06.904Z,16.50
2018-05-13T05:29:33.178Z,16.40
2018-05-13T05:31:59.450Z,16.50
2018-05-13T05:34:26.430Z,16.60
2018-05-13T05:36:52.718Z,16.60
2018-05-13T05:39:18.974Z,16.60
2018-05-13T05:41:45.610Z,16.60
2018-05-13T05:44:11.938Z,16.60
2018-05-13T05:46:38.201Z,16.50
2018-05-13T05:49:04.679Z,16.50
2018-05-13T05:51:32.498Z,16.50
2018-05-13T05:53:58.749Z,16.50
2018-05-13T05:56:25.034Z,16.50
2018-05-13T05:58:51.287Z,16.60
2018-05-13T06:01:17.683Z,16.50
2018-05-13T06:03:44.693Z,16.40
2018-05-13T06:06:11.025Z,16.40
2018-05-13T06:08:37.269Z,16.70
2018-05-13T06:11:03.998Z,16.80
2018-05-13T06:13:30.266Z,16.80
2018-05-13T06:15:57.095Z,16.70
2018-05-13T06:18:23.350Z,16.70
2018-05-13T06:20:50.017Z,16.70
2018-05-13T06:23:16.269Z,16.80
2018-05-13T06:25:43.006Z,16.70
2018-05-13T06:28:09.270Z,16.60
2018-05-13T06:30:35.538Z,16.60
2018-05-13T06:33:01.815Z,16.70
2018-05-13T06:35:28.070Z,16.70
2018-05-13T06:37:54.360Z,16.70
2018-05-13T06:40:20.607Z,16.60
2018-05-13T06:42:47.566Z,16.50
2018-05-13T06:45:13.847Z,16.40
2018-05-13T06:47:40.537Z,16.40
2018-05-13T06:50:06.841Z,16.50
2018-05-13T06:52:33.414Z,16.40
2018-05-13T06:54:59.641Z,16.40
2018-05-13T06:57:26.016Z,16.20
2018-05-13T06:59:52.171Z,16.20
2018-05-13T07:02:18.434Z,16.20
2018-05-13T07:04:44.666Z,16.10
2018-05-13T07:07:10.915Z,16.00
2018-05-13T07:09:37.200Z,15.80
2018-05-13T07:12:03.449Z,15.80
2018-05-13T07:14:29.722Z,15.70
2018-05-13T07:16:56.058Z,15.70
2018-05-13T07:19:24.852Z,15.60
2018-05-13T07:21:52.157Z,15.60
2018-05-13T07:24:18.712Z,15.70
2018-05-13T07:26:46.573Z,15.70
2018-05-13T07:29:12.888Z,15.70
2018-05-13T07:31:39.123Z,15.80
2018-05-13T07:34:05.391Z,15.90
2018-05-13T07:36:31.684Z,16.00
2018-05-13T07:38:58.202Z,16.10
2018-05-13T07:41:24.434Z,16.10
2018-05-13T07:43:50.682Z,16.00
2018-05-13T07:46:16.924Z,16.10
2018-05-13T07:48:43.292Z,16.10
2018-05-13T07:51:09.581Z,15.90
2018-05-13T07:53:35.830Z,15.80
2018-05-13T07:56:02.381Z,15.90
2018-05-13T07:58:28.670Z,15.90
2018-05-13T08:00:55.162Z,15.80
2018-05-13T08:03:21.429Z,15.80
2018-05-13T08:05:48.561Z,15.90
2018-05-13T08:08:14.866Z,15.80
2018-05-13T08:10:41.139Z,15.80
2018-05-13T08:13:07.385Z,15.80
2018-05-13T08:15:34.094Z,15.70
2018-05-13T08:18:00.329Z,15.70
2018-05-13T08:20:27.247Z,15.70
2018-05-13T08:22:53.390Z,15.50
2018-05-13T08:25:19.650Z,15.30
2018-05-13T08:27:45.895Z,15.20
2018-05-13T08:30:12.162Z,15.10
2018-05-13T08:32:38.587Z,15.10
2018-05-13T08:35:04.871Z,15.00
2018-05-13T08:37:31.153Z,15.00
2018-05-13T08:39:57.406Z,14.90
2018-05-13T08:42:24.402Z,15.20
2018-05-13T08:44:50.841Z,15.20
2018-05-13T08:47:17.104Z,15.20
2018-05-13T08:49:43.966Z,15.10
2018-05-13T08:52:10.227Z,15.20
2018-05-13T08:54:36.946Z,15.30
2018-05-13T08:57:03.361Z,15.30
2018-05-13T08:59:30.027Z,15.30
2018-05-13T09:01:57.048Z,15.50
2018-05-13T09:04:23.434Z,15.50
2018-05-13T09:06:50.029Z,15.40
2018-05-13T09:09:16.545Z,15.40
2018-05-13T09:11:42.850Z,15.30
2018-05-13T09:14:09.162Z,15.20
2018-05-13T09:16:35.473Z,15.10
2018-05-13T09:19:01.989Z,15.10
2018-05-13T09:21:28.261Z,15.30
2018-05-13T09:23:54.577Z,15.30
2018-05-13T09:26:21.081Z,15.30
2018-05-13T09:28:47.369Z,15.40
2018-05-13T09:31:14.037Z,15.40
2018-05-13T09:33:40.285Z,15.40
2018-05-13T09:36:06.513Z,15.20
2018-05-13T09:38:32.790Z,15.20
2018-05-13T09:40:59.185Z,15.20
2018-05-13T09:43:26.209Z,15.40
2018-05-13T09:45:52.687Z,15.30
2018-05-13T09:48:18.923Z,15.30
2018-05-13T09:50:45.234Z,15.00
2018-05-13T09:53:12.410Z,15.00
2018-05-13T09:55:38.659Z,15.00
2018-05-13T09:58:05.670Z,14.90
2018-05-13T10:00:32.065Z,14.90
2018-05-13T10:02:58.325Z,14.90
2018-05-13T10:05:24.583Z,14.90
2018-05-13T10:07:50.886Z,15.00
2018-05-13T10:10:17.175Z,15.20
2018-05-13T10:12:43.915Z,15.10
2018-05-13T10:15:10.158Z,15.30
2018-05-13T10:17:36.431Z,15.20
2018-05-13T10:20:02.698Z,15.40
2018-05-13T10:22:29.173Z,15.30
2018-05-13T10:24:55.482Z,15.30
2018-05-13T10:27:21.816Z,15.30
2018-05-13T10:29:48.604Z,15.40
2018-05-13T10:32:14.852Z,15.40
2018-05-13T10:34:41.305Z,15.10
2018-05-13T10:37:07.690Z,15.10
2018-05-13T10:39:35.590Z,14.90
2018-05-13T10:42:01.942Z,14.90
2018-05-13T10:44:28.970Z,15.10
2018-05-13T10:46:55.644Z,15.10
2018-05-13T10:49:22.647Z,15.30
2018-05-13T10:51:49.354Z,15.30
2018-05-13T10:54:15.626Z,15.40
2018-05-13T10:56:42.438Z,15.40
2018-05-13T10:59:08.747Z,15.50
2018-05-13T11:01:35.017Z,15.40
2018-05-13T11:04:01.283Z,15.40
2018-05-13T11:06:27.607Z,15.20
2018-05-13T11:08:54.362Z,15.30
2018-05-13T11:11:20.694Z,15.60
2018-05-13T11:13:47.833Z,15.60
2018-05-13T11:16:14.445Z,15.60
2018-05-13T11:18:40.889Z,15.60
2018-05-13T11:21:08.461Z,15.50
2018-05-13T11:23:35.450Z,15.50
2018-05-13T11:26:01.703Z,15.50
2018-05-13T11:28:28.661Z,15.30
2018-05-13T11:30:55.062Z,15.00
2018-05-13T11:33:22.290Z,15.00
2018-05-13T11:35:48.862Z,14.80
2018-05-13T11:38:15.238Z,14.70
2018-05-13T11:40:41.539Z,14.70
2018-05-13T11:43:07.777Z,14.60
2018-05-13T11:45:34.063Z,14.60
2018-05-13T11:48:01.306Z,14.60
2018-05-13T11:50:29.211Z,14.60
2018-05-13T11:52:56.649Z,14.70
2018-05-13T11:55:22.890Z,14.60
2018-05-13T11:57:49.107Z,14.60
2018-05-13T12:00:16.551Z,14.70
2018-05-13T12:02:42.789Z,14.70
2018-05-13T12:05:09.234Z,14.70
2018-05-13T12:07:35.522Z,14.60
2018-05-13T12:10:01.814Z,14.60
2018-05-13T12:12:28.592Z,14.50
2018-05-13T12:14:54.926Z,14.50
2018-05-13T12:17:21.233Z,14.50
2018-05-13T12:19:47.476Z,14.60
2018-05-13T12:22:13.753Z,14.60
2018-05-13T12:24:40.102Z,14.70
2018-05-13T12:27:06.369Z,14.80
2018-05-13T12:29:32.941Z,14.90
2018-05-13T12:31:59.818Z,14.70
2018-05-13T12:34:26.063Z,14.70
2018-05-13T12:36:52.369Z,14.90
2018-05-13T12:39:18.688Z,15.00
2018-05-13T12:41:44.950Z,15.00
2018-05-13T12:44:11.522Z,14.90
2018-05-13T12:46:38.007Z,14.80
2018-05-13T12:49:05.046Z,14.90
2018-05-13T12:51:31.306Z,14.90
2018-05-13T12:53:58.551Z,14.90
2018-05-13T12:56:24.852Z,15.00
2018-05-13T12:58:51.061Z,14.90
2018-05-13T13:01:17.774Z,15.00
2018-05-13T13:03:44.972Z,15.20
2018-05-13T13:06:11.213Z,15.20
2018-05-13T13:08:37.498Z,15.20
2018-05-13T13:11:04.182Z,15.00
2018-05-13T13:13:30.447Z,14.80
2018-05-13T13:15:56.738Z,14.80
2018-05-13T13:18:23.025Z,14.80
2018-05-13T13:20:50.274Z,15.00
2018-05-13T13:23:16.669Z,15.10
2018-05-13T13:25:43.100Z,15.10
2018-05-13T13:28:09.369Z,15.20
2018-05-13T13:30:35.723Z,15.30
2018-05-13T13:33:02.029Z,15.40
2018-05-13T13:35:28.282Z,15.30
2018-05-13T13:37:54.539Z,15.50
2018-05-13T13:40:20.790Z,15.50
2018-05-13T13:42:47.282Z,15.60
2018-05-13T13:45:14.265Z,15.60
2018-05-13T13:47:40.538Z,15.50
2018-05-13T13:50:06.889Z,15.60
2018-05-13T13:52:33.158Z,15.70
2018-05-13T13:54:59.414Z,15.40
2018-05-13T13:57:25.719Z,15.60
2018-05-13T13:59:52.006Z,15.50
2018-05-13T14:02:18.798Z,15.50
2018-05-13T14:04:45.053Z,15.30
2018-05-13T14:07:11.297Z,15.30
2018-05-13T14:09:37.713Z,15.30
2018-05-13T14:12:18.923Z,15.30
2018-05-13T14:14:45.921Z,15.30
2018-05-13T14:17:13.183Z,15.30
2018-05-13T14:19:39.435Z,15.20
2018-05-13T14:22:05.677Z,15.10
2018-05-13T14:24:32.678Z,15.10
2018-05-13T14:26:58.962Z,15.10
2018-05-13T14:29:25.798Z,15.00
2018-05-13T14:31:52.044Z,15.00
2018-05-13T14:34:18.308Z,15.00
2018-05-13T14:36:45.533Z,15.00
2018-05-13T14:39:12.258Z,15.20
2018-05-13T14:41:38.240Z,15.10
2018-05-13T14:44:05.695Z,14.90
2018-05-13T14:46:32.450Z,14.90
2018-05-13T14:48:58.713Z,14.90
2018-05-13T14:51:24.966Z,14.90
2018-05-13T14:53:51.294Z,14.90
2018-05-13T14:56:17.530Z,15.00
2018-05-13T14:58:43.989Z,15.00
2018-05-13T15:01:10.236Z,15.00
2018-05-13T15:03:36.506Z,15.00
2018-05-13T15:06:02.848Z,15.10
2018-05-13T15:08:29.718Z,15.10
2018-05-13T15:10:56.046Z,15.20
2018-05-13T15:13:22.279Z,15.30
2018-05-13T15:15:49.306Z,15.40
2018-05-13T15:18:15.901Z,15.40
2018-05-13T15:20:42.198Z,15.30
2018-05-13T15:23:08.549Z,15.20
2018-05-13T15:25:35.016Z,15.10
2018-05-13T15:28:02.242Z,15.10
2018-05-13T15:30:28.518Z,15.10
2018-05-13T15:32:54.757Z,15.20
2018-05-13T15:35:21.034Z,15.20
2018-05-13T15:37:47.509Z,15.20
2018-05-13T15:40:13.790Z,15.00
2018-05-13T15:42:40.134Z,15.00
2018-05-13T15:45:06.896Z,15.00
2018-05-13T15:47:33.175Z,15.00
2018-05-13T15:49:59.473Z,15.00
2018-05-13T15:52:25.779Z,14.90
2018-05-13T15:54:53.274Z,15.00
2018-05-13T15:57:19.550Z,14.90
2018-05-13T15:59:46.135Z,15.00
2018-05-13T16:02:12.408Z,15.00
2018-05-13T16:04:38.718Z,15.00
2018-05-13T16:07:06.501Z,14.90
2018-05-13T16:09:32.775Z,14.70
2018-05-13T16:11:59.045Z,14.70
2018-05-13T16:14:25.526Z,14.60
2018-05-13T16:16:51.833Z,14.60
2018-05-13T16:19:18.378Z,14.70
2018-05-13T16:21:44.689Z,14.80
2018-05-13T16:24:10.930Z,14.80
2018-05-13T16:26:37.249Z,14.90
2018-05-13T16:29:03.569Z,14.80
2018-05-13T16:31:29.906Z,14.80
2018-05-13T16:33:57.877Z,14.70
2018-05-13T16:36:24.139Z,14.70
2018-05-13T16:38:50.395Z,14.70
2018-05-13T16:41:16.926Z,14.80
2018-05-13T16:43:43.195Z,14.70
2018-05-13T16:46:09.442Z,14.70
2018-05-13T16:48:35.698Z,14.70
2018-05-13T16:51:02.330Z,14.80
2018-05-13T16:53:28.586Z,14.90
2018-05-13T16:55:55.407Z,14.90
2018-05-13T16:58:21.677Z,14.90
2018-05-13T17:00:48.010Z,14.80
2018-05-13T17:03:14.265Z,14.80
2018-05-13T17:05:40.510Z,14.80
2018-05-13T17:08:06.775Z,14.70
2018-05-13T17:10:33.021Z,14.80
2018-05-13T17:12:59.590Z,14.90
2018-05-13T17:15:26.014Z,14.90
2018-05-13T17:17:52.265Z,14.90
2018-05-13T17:20:18.757Z,14.90
2018-05-13T17:22:45.004Z,14.80
2018-05-13T17:25:11.565Z,14.80
2018-05-13T17:27:38.133Z,14.70
2018-05-13T17:30:04.542Z,14.70
2018-05-13T17:32:30.783Z,14.80
2018-05-13T17:34:57.098Z,14.70
2018-05-13T17:37:24.166Z,14.60
2018-05-13T17:39:50.358Z,14.70
2018-05-13T17:42:16.582Z,14.80
2018-05-13T17:44:42.881Z,14.70
2018-05-13T17:50:38.724Z,14.90
2018-05-13T17:53:05.760Z,14.60
2018-05-13T17:55:32.000Z,14.60
2018-05-13T17:57:58.230Z,14.70
2018-05-13T18:00:24.480Z,14.50
2018-05-13T18:02:50.733Z,14.50
2018-05-13T18:05:17.729Z,14.60
2018-05-13T18:07:44.190Z,14.60
2018-05-13T18:10:10.502Z,14.60
2018-05-13T18:12:36.810Z,14.50
2018-05-13T18:15:03.305Z,14.60
2018-05-13T18:17:29.550Z,14.50
2018-05-13T18:19:56.133Z,14.60
2018-05-13T18:22:22.373Z,14.60
2018-05-13T18:24:48.725Z,14.50
2018-05-13T18:27:14.963Z,14.50
2018-05-13T18:29:41.238Z,14.50
2018-05-13T18:32:07.847Z,14.40
2018-05-13T18:34:34.092Z,14.50
2018-05-13T18:37:00.682Z,14.50
2018-05-13T18:39:27.417Z,14.50
2018-05-13T18:41:53.642Z,14.50
2018-05-13T18:44:19.874Z,14.50
2018-05-13T18:46:46.138Z,14.50
2018-05-13T18:49:12.430Z,14.40
2018-05-13T18:51:39.172Z,14.40
2018-05-13T18:54:05.473Z,14.40
2018-05-13T18:56:31.742Z,14.60
2018-05-13T18:58:59.355Z,14.50
2018-05-13T19:01:25.666Z,14.50
2018-05-13T19:03:51.927Z,14.50
2018-05-13T19:06:19.133Z,14.50
2018-05-13T19:08:45.380Z,14.50
2018-05-13T19:11:11.690Z,14.60
2018-05-13T19:13:37.953Z,14.50
2018-05-13T19:16:04.245Z,14.40
2018-05-13T19:18:30.503Z,14.40
2018-05-13T19:20:56.778Z,14.30
2018-05-13T19:23:23.757Z,14.20
2018-05-13T19:25:51.229Z,14.20
2018-05-13T19:28:17.462Z,14.20
2018-05-13T19:30:43.745Z,14.20
2018-05-13T19:33:10.399Z,14.20
2018-05-13T19:35:36.658Z,14.10
2018-05-13T19:38:02.986Z,14.10
2018-05-13T19:40:29.249Z,14.10
2018-05-13T19:42:56.295Z,14.10
2018-05-13T19:45:22.906Z,14.00
2018-05-13T19:47:49.234Z,14.00
2018-05-13T19:50:15.461Z,14.00
2018-05-13T19:52:42.083Z,14.10
2018-05-13T19:55:08.322Z,14.00
2018-05-13T19:57:34.600Z,13.90
2018-05-13T20:00:00.899Z,14.00
2018-05-13T20:02:27.172Z,14.00
2018-05-13T20:04:53.418Z,14.00
2018-05-13T20:07:19.690Z,14.10
2018-05-13T20:09:46.626Z,14.10
2018-05-13T20:12:12.902Z,14.00
2018-05-13T20:14:39.214Z,14.00
2018-05-13T20:17:06.118Z,14.00
2018-05-13T20:19:32.746Z,13.90
2018-05-13T20:22:00.122Z,13.90
2018-05-13T20:24:26.391Z,13.80
2018-05-13T20:26:52.810Z,13.90
2018-05-13T20:29:19.446Z,13.80
2018-05-13T20:31:45.697Z,13.80
2018-05-13T20:34:12.009Z,13.80
2018-05-13T20:36:38.250Z,13.80
2018-05-13T20:39:04.572Z,13.80
2018-05-13T20:41:30.894Z,13.90
2018-05-13T20:43:57.154Z,13.80
2018-05-13T20:46:23.480Z,13.80
2018-05-13T20:48:49.763Z,13.90
2018-05-13T20:51:16.623Z,13.90
2018-05-13T20:53:42.872Z,13.90
2018-05-13T20:56:09.590Z,13.80
2018-05-13T20:58:35.902Z,13.80
2018-05-13T21:01:02.470Z,13.90
2018-05-13T21:03:28.746Z,13.80
2018-05-13T21:05:55.314Z,13.80
2018-05-13T21:08:21.569Z,13.80
2018-05-13T21:10:47.827Z,13.80
2018-05-13T21:13:14.111Z,13.70
2018-05-13T21:15:40.430Z,13.70
2018-05-13T21:18:06.697Z,13.60
2018-05-13T21:20:33.285Z,13.60
2018-05-13T21:22:59.518Z,13.60
2018-05-13T21:25:25.817Z,13.60
2018-05-13T21:27:52.066Z,13.60
2018-05-13T21:30:18.740Z,13.50
2018-05-13T21:32:44.970Z,13.50
2018-05-13T21:35:11.259Z,13.50
2018-05-13T21:37:37.773Z,13.50
2018-05-13T21:40:04.051Z,13.40
2018-05-13T21:42:30.318Z,13.50
2018-05-13T21:44:56.618Z,13.50
2018-05-13T21:47:22.877Z,13.40
2018-05-13T21:49:49.118Z,13.50
2018-05-13T21:52:16.629Z,13.50
2018-05-13T21:54:42.890Z,13.50
2018-05-13T21:57:09.138Z,13.50
2018-05-13T21:59:36.786Z,13.60
2018-05-13T22:02:03.314Z,13.50
2018-05-13T22:04:29.602Z,13.50
2018-05-13T22:06:56.106Z,13.50
2018-05-13T22:09:23.089Z,13.60
2018-05-13T22:11:49.315Z,13.50
2018-05-13T22:14:15.598Z,13.50
2018-05-13T22:16:41.858Z,13.40
2018-05-13T22:19:08.387Z,13.40
2018-05-13T22:21:34.612Z,13.30
2018-05-13T22:24:00.875Z,13.30
2018-05-13T22:26:27.129Z,13.20
2018-05-13T22:28:55.002Z,13.30
2018-05-13T22:31:21.272Z,13.20
2018-05-13T22:33:47.726Z,13.20
2018-05-13T22:36:14.717Z,13.20
2018-05-13T22:38:41.018Z,13.20
2018-05-13T22:41:07.330Z,13.10
2018-05-13T22:43:33.973Z,13.20
2018-05-13T22:46:00.993Z,13.20
2018-05-13T22:48:27.224Z,13.20
2018-05-13T22:50:53.472Z,13.10
2018-05-13T22:53:19.994Z,13.10
2018-05-13T22:55:46.264Z,13.00
2018-05-13T22:58:13.122Z,13.00
2018-05-13T23:00:39.405Z,13.00
2018-05-13T23:03:06.194Z,13.10
2018-05-13T23:05:32.518Z,13.10
2018-05-13T23:07:58.910Z,13.00
2018-05-13T23:10:25.223Z,12.90
2018-05-13T23:12:52.134Z,12.90
2018-05-13T23:15:18.390Z,12.90
2018-05-13T23:17:45.121Z,12.90
2018-05-13T23:20:11.373Z,12.90
2018-05-13T23:22:37.625Z,13.00
2018-05-13T23:25:03.970Z,12.90
2018-05-13T23:27:30.234Z,12.90
2018-05-13T23:29:56.497Z,12.80
2018-05-13T23:32:23.222Z,12.90
2018-05-13T23:34:49.506Z,12.80
2018-05-13T23:37:15.983Z,12.80
2018-05-13T23:39:42.263Z,12.90
2018-05-13T23:42:08.549Z,12.90
2018-05-13T23:44:34.793Z,12.80
2018-05-13T23:47:01.056Z,12.80
2018-05-13T23:49:27.334Z,12.90
2018-05-13T23:51:53.586Z,12.90
2018-05-13T23:54:20.516Z,12.80
2018-05-13T23:56:47.318Z,12.90
2018-05-13T23:59:13.578Z,12.90
